createdAt,value
2019-04-04T17:28:05.068Z,19.139999
2019-04-04T17:28:18.759Z,19.200001
2019-04-04T17:28:31.416Z,19.24
2019-04-04T17:28:44.078Z,19.26
2019-04-04T17:29:41.450Z,19.27
2019-04-04T17:29:54.102Z,19.309999
2019-04-04T17:30:07.714Z,19.34
2019-04-04T17:30:20.394Z,19.370001
2019-04-04T17:30:33.038Z,19.389999
2019-04-04T17:30:45.708Z,19.450001
2019-04-04T17:30:58.453Z,19.57
2019-04-04T17:31:13.066Z,19.75
2019-04-04T17:31:25.724Z,19.91
2019-04-04T17:31:38.402Z,20.01
2019-04-04T17:31:51.038Z,20.040001
2019-04-04T17:32:03.673Z,20.040001
2019-04-04T17:32:16.326Z,20.02
2019-04-04T17:32:28.998Z,19.99
2019-04-04T17:32:41.632Z,19.969999
2019-04-04T17:32:57.260Z,19.93
2019-04-04T17:33:09.925Z,19.889999
2019-04-04T17:33:22.568Z,19.85
2019-04-04T17:33:35.235Z,19.83
2019-04-04T17:33:48.872Z,19.799999
2019-04-04T17:34:01.538Z,19.77
2019-04-04T17:34:14.226Z,19.77
2019-04-04T17:34:26.874Z,19.74
2019-04-04T17:34:40.509Z,19.74
2019-04-04T17:34:53.163Z,19.73
2019-04-04T17:35:05.804Z,19.709999
2019-04-04T17:35:18.462Z,19.719999
2019-04-04T17:35:31.082Z,19.709999
2019-04-04T17:35:43.739Z,19.719999
2019-04-04T17:35:57.487Z,19.73
2019-04-04T17:36:10.275Z,19.74
2019-04-04T17:36:26.690Z,19.76
2019-04-04T17:36:42.369Z,19.77
2019-04-04T17:36:55.837Z,19.76
2019-04-04T17:37:09.758Z,19.76
2019-04-04T17:37:23.383Z,19.75
2019-04-04T17:37:39.707Z,19.75
2019-04-04T17:37:56.045Z,19.74
2019-04-04T17:38:12.670Z,19.73
2019-04-04T17:38:27.824Z,19.719999
2019-04-04T17:38:42.169Z,19.709999
2019-04-04T17:39:00.182Z,19.719999
2019-04-04T17:39:17.573Z,19.719999
2019-04-04T17:39:34.315Z,19.780001
2019-04-04T17:39:49.550Z,19.790001
2019-04-04T17:40:03.538Z,19.82
2019-04-04T17:40:22.557Z,19.82
2019-04-04T17:40:39.539Z,19.82
2019-04-04T17:41:01.579Z,19.85
2019-04-04T17:41:23.298Z,19.85
2019-04-04T17:41:39.944Z,19.870001
2019-04-04T17:41:59.192Z,19.860001
2019-04-04T17:42:29.957Z,19.860001
2019-04-04T17:42:42.437Z,19.870001
2019-04-04T17:42:55.068Z,19.860001
2019-04-04T17:43:07.728Z,19.870001
2019-04-04T17:43:20.383Z,19.860001
2019-04-04T17:43:33.028Z,19.870001
2019-04-04T17:43:45.675Z,19.870001
2019-04-04T17:43:58.314Z,19.860001
2019-04-04T17:44:11.956Z,19.870001
2019-04-04T17:44:24.617Z,19.870001
2019-04-04T17:44:38.224Z,19.879999
2019-04-04T17:44:50.897Z,19.870001
2019-04-04T17:45:06.505Z,19.879999
2019-04-04T17:45:19.165Z,19.9
2019-04-04T17:45:31.849Z,19.889999
2019-04-04T17:45:44.504Z,19.91
2019-04-04T17:45:57.140Z,19.92
2019-04-04T17:46:09.802Z,19.91
2019-04-04T17:46:22.466Z,19.92
2019-04-04T17:46:35.101Z,19.92
2019-04-04T17:46:47.790Z,19.92
2019-04-04T17:47:00.450Z,19.91
2019-04-04T17:47:13.091Z,19.91
2019-04-04T17:47:26.734Z,19.92
2019-04-04T17:47:40.366Z,19.940001
2019-04-04T17:47:53.021Z,19.93
2019-04-04T17:48:05.655Z,19.940001
2019-04-04T17:48:18.323Z,19.950001
2019-04-04T17:48:33.104Z,19.940001
2019-04-04T17:48:45.606Z,19.950001
2019-04-04T17:48:58.282Z,19.940001
2019-04-04T17:49:11.914Z,19.940001
2019-04-04T17:49:24.589Z,19.940001
2019-04-04T17:49:38.244Z,19.969999
2019-04-04T17:49:50.907Z,19.959999
2019-04-04T17:50:03.555Z,19.98
2019-04-04T17:50:18.546Z,19.99
2019-04-04T17:50:31.826Z,20.01
2019-04-04T17:50:44.482Z,19.99
2019-04-04T17:50:58.107Z,20.01
2019-04-04T17:51:10.757Z,20.01
2019-04-04T17:51:23.397Z,20.02
2019-04-04T17:51:36.044Z,20.01
2019-04-04T17:51:48.711Z,20.02
2019-04-04T17:52:01.375Z,20.01
2019-04-04T17:52:14.459Z,20.01
2019-04-04T17:52:27.157Z,20.01
2019-04-04T17:52:40.810Z,20.01
2019-04-04T17:52:53.478Z,20.02
2019-04-04T17:53:07.160Z,20.01
2019-04-04T17:53:19.812Z,20.030001
2019-04-04T17:53:32.582Z,20.040001
2019-04-04T17:53:45.255Z,20.030001
2019-04-04T17:53:59.866Z,20.030001
2019-04-04T17:54:12.545Z,20.030001
2019-04-04T17:54:25.222Z,20.02
2019-04-04T17:54:37.906Z,20.030001
2019-04-04T17:54:50.545Z,20.030001
2019-04-04T17:55:21.469Z,19.98
2019-04-04T17:55:34.114Z,20.030001
2019-04-04T17:55:46.758Z,20.030001
2019-04-04T17:56:01.391Z,20.030001
2019-04-04T17:56:14.058Z,20.030001
2019-04-04T17:56:26.701Z,20.02
2019-04-04T17:56:39.426Z,20.030001
2019-04-04T17:56:52.069Z,20.030001
2019-04-04T17:57:04.736Z,20.049999
2019-04-04T17:57:17.382Z,20.049999
2019-04-04T17:57:30.054Z,20.049999
2019-04-04T17:57:42.715Z,20.049999
2019-04-04T17:57:56.213Z,20.049999
2019-04-04T17:58:08.863Z,20.059999
2019-04-04T17:58:22.530Z,20.049999
2019-04-04T17:58:35.203Z,20.049999
2019-04-04T18:32:55.175Z,19.879999
2019-04-04T18:33:07.834Z,19.950001
2019-04-04T18:33:22.498Z,20
2019-04-04T18:33:35.160Z,20.01
2019-04-04T18:33:47.808Z,20.01
2019-04-04T18:34:00.451Z,20.01
2019-04-04T18:34:15.075Z,19.99
2019-04-04T18:34:28.747Z,19.99
2019-04-04T18:34:42.449Z,19.98
2019-04-04T18:34:55.103Z,19.99
2019-04-04T18:35:07.808Z,19.98
2019-04-04T18:35:20.470Z,20
2019-04-04T18:35:33.141Z,19.99
2019-04-04T18:35:45.867Z,20.02
2019-04-04T18:35:58.495Z,20.02
2019-04-04T18:36:11.188Z,20.02
2019-04-04T18:36:23.858Z,20.049999
2019-04-04T18:36:36.545Z,20.08
2019-04-04T18:36:49.217Z,20.110001
2019-04-04T18:37:01.945Z,20.110001
2019-04-04T18:37:14.595Z,20.139999
2019-04-04T18:37:27.258Z,20.16
2019-04-04T18:37:39.885Z,20.18
2019-04-04T18:37:52.544Z,20.190001
2019-04-04T18:38:05.236Z,20.190001
2019-04-04T18:38:17.899Z,20.18
2019-04-04T18:38:30.534Z,20.139999
2019-04-04T18:38:43.184Z,20.139999
